sensor_id;sensor_type;location;lat;lon;timestamp;P1;durP1;ratioP1;P2;durP2;ratioP2
52124;SDS011;38119;52.710;6.398;2024-03-07T00:02:19;63.65;;;33.20;;
52124;SDS011;38119;52.710;6.398;2024-03-07T00:04:45;66.18;;;35.30;;
52124;SDS011;38119;52.710;6.398;2024-03-07T00:07:11;70.07;;;36.58;;
52124;SDS011;38119;52.710;6.398;2024-03-07T00:09:37;70.25;;;35.80;;
52124;SDS011;38119;52.710;6.398;2024-03-07T00:12:03;70.10;;;36.08;;
52124;SDS011;38119;52.710;6.398;2024-03-07T00:14:33;73.30;;;38.03;;
52124;SDS011;38119;52.710;6.398;2024-03-07T00:17:00;67.57;;;34.50;;
52124;SDS011;38119;52.710;6.398;2024-03-07T00:19:27;62.13;;;33.33;;
52124;SDS011;38119;52.710;6.398;2024-03-07T00:21:54;64.32;;;31.85;;
52124;SDS011;38119;52.710;6.398;2024-03-07T00:24:21;56.53;;;30.50;;
52124;SDS011;38119;52.710;6.398;2024-03-07T00:26:47;61.03;;;32.05;;
52124;SDS011;38119;52.710;6.398;2024-03-07T00:29:17;57.17;;;30.83;;
52124;SDS011;38119;52.710;6.398;2024-03-07T00:31:46;61.75;;;32.83;;
52124;SDS011;38119;52.710;6.398;2024-03-07T00:34:15;59.72;;;31.75;;
52124;SDS011;38119;52.710;6.398;2024-03-07T00:36:44;56.22;;;30.52;;
52124;SDS011;38119;52.710;6.398;2024-03-07T00:39:10;58.83;;;30.42;;
52124;SDS011;38119;52.710;6.398;2024-03-07T00:41:38;57.00;;;30.38;;
52124;SDS011;38119;52.710;6.398;2024-03-07T00:44:05;56.17;;;30.55;;
52124;SDS011;38119;52.710;6.398;2024-03-07T00:46:31;55.53;;;30.00;;
52124;SDS011;38119;52.710;6.398;2024-03-07T00:48:57;56.05;;;30.65;;
52124;SDS011;38119;52.710;6.398;2024-03-07T00:51:22;56.38;;;30.02;;
52124;SDS011;38119;52.710;6.398;2024-03-07T00:53:48;64.88;;;32.20;;
52124;SDS011;38119;52.710;6.398;2024-03-07T00:56:14;58.03;;;30.27;;
52124;SDS011;38119;52.710;6.398;2024-03-07T00:58:39;58.90;;;30.92;;
52124;SDS011;38119;52.710;6.398;2024-03-07T01:01:06;51.45;;;30.20;;
52124;SDS011;38119;52.710;6.398;2024-03-07T01:03:31;59.88;;;30.17;;
52124;SDS011;38119;52.710;6.398;2024-03-07T01:05:57;57.72;;;30.52;;
52124;SDS011;38119;52.710;6.398;2024-03-07T01:08:22;58.35;;;30.45;;
52124;SDS011;38119;52.710;6.398;2024-03-07T01:10:48;61.05;;;29.90;;
52124;SDS011;38119;52.710;6.398;2024-03-07T01:13:14;57.00;;;29.98;;
52124;SDS011;38119;52.710;6.398;2024-03-07T01:15:44;58.35;;;29.08;;
52124;SDS011;38119;52.710;6.398;2024-03-07T01:18:10;53.95;;;28.85;;
52124;SDS011;38119;52.710;6.398;2024-03-07T01:20:36;57.55;;;30.52;;
52124;SDS011;38119;52.710;6.398;2024-03-07T01:23:01;49.83;;;28.63;;
52124;SDS011;38119;52.710;6.398;2024-03-07T01:25:27;53.85;;;29.92;;
52124;SDS011;38119;52.710;6.398;2024-03-07T01:27:53;55.55;;;29.05;;
52124;SDS011;38119;52.710;6.398;2024-03-07T01:30:18;56.25;;;28.45;;
52124;SDS011;38119;52.710;6.398;2024-03-07T01:32:44;57.13;;;29.33;;
52124;SDS011;38119;52.710;6.398;2024-03-07T01:35:10;52.05;;;28.00;;
52124;SDS011;38119;52.710;6.398;2024-03-07T01:37:35;52.00;;;27.85;;
52124;SDS011;38119;52.710;6.398;2024-03-07T01:40:02;49.53;;;28.17;;
52124;SDS011;38119;52.710;6.398;2024-03-07T01:42:30;48.22;;;26.50;;
52124;SDS011;38119;52.710;6.398;2024-03-07T01:44:56;50.20;;;27.17;;
52124;SDS011;38119;52.710;6.398;2024-03-07T01:47:21;51.25;;;27.02;;
52124;SDS011;38119;52.710;6.398;2024-03-07T01:49:47;50.83;;;27.65;;
52124;SDS011;38119;52.710;6.398;2024-03-07T01:52:13;46.67;;;26.90;;
52124;SDS011;38119;52.710;6.398;2024-03-07T01:54:39;44.00;;;24.55;;
52124;SDS011;38119;52.710;6.398;2024-03-07T01:57:05;46.58;;;25.02;;
52124;SDS011;38119;52.710;6.398;2024-03-07T01:59:32;39.58;;;23.75;;
52124;SDS011;38119;52.710;6.398;2024-03-07T02:01:58;48.03;;;25.25;;
52124;SDS011;38119;52.710;6.398;2024-03-07T02:04:26;46.67;;;25.02;;
52124;SDS011;38119;52.710;6.398;2024-03-07T02:06:52;41.13;;;24.38;;
52124;SDS011;38119;52.710;6.398;2024-03-07T02:09:18;45.63;;;23.73;;
52124;SDS011;38119;52.710;6.398;2024-03-07T02:11:46;44.75;;;23.88;;
52124;SDS011;38119;52.710;6.398;2024-03-07T02:14:14;40.10;;;23.92;;
52124;SDS011;38119;52.710;6.398;2024-03-07T02:16:39;39.33;;;23.55;;
52124;SDS011;38119;52.710;6.398;2024-03-07T02:19:05;41.22;;;23.15;;
52124;SDS011;38119;52.710;6.398;2024-03-07T02:21:31;40.97;;;22.58;;
52124;SDS011;38119;52.710;6.398;2024-03-07T02:23:58;41.78;;;23.98;;
52124;SDS011;38119;52.710;6.398;2024-03-07T02:26:23;39.17;;;22.33;;
52124;SDS011;38119;52.710;6.398;2024-03-07T02:28:49;38.72;;;21.80;;
52124;SDS011;38119;52.710;6.398;2024-03-07T02:31:15;39.25;;;22.90;;
52124;SDS011;38119;52.710;6.398;2024-03-07T02:33:40;40.05;;;22.67;;
52124;SDS011;38119;52.710;6.398;2024-03-07T02:36:06;39.45;;;21.75;;
52124;SDS011;38119;52.710;6.398;2024-03-07T02:38:32;38.38;;;21.15;;
52124;SDS011;38119;52.710;6.398;2024-03-07T02:40:59;34.55;;;20.40;;
52124;SDS011;38119;52.710;6.398;2024-03-07T02:43:25;40.65;;;21.95;;
52124;SDS011;38119;52.710;6.398;2024-03-07T02:45:51;32.28;;;20.13;;
52124;SDS011;38119;52.710;6.398;2024-03-07T02:48:16;38.65;;;21.80;;
52124;SDS011;38119;52.710;6.398;2024-03-07T02:50:43;37.60;;;22.02;;
52124;SDS011;38119;52.710;6.398;2024-03-07T02:53:09;35.55;;;20.90;;
52124;SDS011;38119;52.710;6.398;2024-03-07T02:55:34;38.13;;;22.20;;
52124;SDS011;38119;52.710;6.398;2024-03-07T02:58:00;38.22;;;20.52;;
52124;SDS011;38119;52.710;6.398;2024-03-07T03:00:26;40.22;;;21.20;;
52124;SDS011;38119;52.710;6.398;2024-03-07T03:02:52;34.85;;;20.35;;
52124;SDS011;38119;52.710;6.398;2024-03-07T03:05:18;38.60;;;20.73;;
52124;SDS011;38119;52.710;6.398;2024-03-07T03:07:44;37.03;;;21.65;;
52124;SDS011;38119;52.710;6.398;2024-03-07T03:10:17;34.35;;;20.42;;
52124;SDS011;38119;52.710;6.398;2024-03-07T03:12:54;35.40;;;20.63;;
52124;SDS011;38119;52.710;6.398;2024-03-07T03:15:23;33.60;;;20.83;;
52124;SDS011;38119;52.710;6.398;2024-03-07T03:17:48;35.33;;;20.83;;
52124;SDS011;38119;52.710;6.398;2024-03-07T03:20:14;34.03;;;20.98;;
52124;SDS011;38119;52.710;6.398;2024-03-07T03:22:49;37.65;;;21.38;;
52124;SDS011;38119;52.710;6.398;2024-03-07T03:25:17;35.08;;;20.70;;
52124;SDS011;38119;52.710;6.398;2024-03-07T03:27:43;37.30;;;21.33;;
52124;SDS011;38119;52.710;6.398;2024-03-07T03:30:09;36.03;;;19.58;;
52124;SDS011;38119;52.710;6.398;2024-03-07T03:32:38;41.28;;;21.73;;
52124;SDS011;38119;52.710;6.398;2024-03-07T03:35:05;33.83;;;20.42;;
52124;SDS011;38119;52.710;6.398;2024-03-07T03:37:32;35.33;;;20.13;;
52124;SDS011;38119;52.710;6.398;2024-03-07T03:39:58;33.03;;;20.08;;
52124;SDS011;38119;52.710;6.398;2024-03-07T03:42:23;36.85;;;20.63;;
52124;SDS011;38119;52.710;6.398;2024-03-07T03:44:49;32.78;;;20.38;;
52124;SDS011;38119;52.710;6.398;2024-03-07T03:47:15;32.63;;;19.10;;
52124;SDS011;38119;52.710;6.398;2024-03-07T03:49:40;33.38;;;20.02;;
52124;SDS011;38119;52.710;6.398;2024-03-07T03:52:06;33.17;;;19.20;;
52124;SDS011;38119;52.710;6.398;2024-03-07T03:54:32;37.63;;;20.73;;
52124;SDS011;38119;52.710;6.398;2024-03-07T03:56:57;35.97;;;19.73;;
52124;SDS011;38119;52.710;6.398;2024-03-07T03:59:23;32.30;;;19.65;;
52124;SDS011;38119;52.710;6.398;2024-03-07T04:01:49;32.85;;;19.30;;
52124;SDS011;38119;52.710;6.398;2024-03-07T04:04:15;35.65;;;19.92;;
52124;SDS011;38119;52.710;6.398;2024-03-07T04:06:40;31.98;;;18.73;;
52124;SDS011;38119;52.710;6.398;2024-03-07T04:09:06;34.38;;;18.77;;
52124;SDS011;38119;52.710;6.398;2024-03-07T04:11:32;32.53;;;20.02;;
52124;SDS011;38119;52.710;6.398;2024-03-07T04:13:57;35.15;;;19.88;;
52124;SDS011;38119;52.710;6.398;2024-03-07T04:16:23;35.17;;;19.63;;
52124;SDS011;38119;52.710;6.398;2024-03-07T04:18:49;32.83;;;19.55;;
52124;SDS011;38119;52.710;6.398;2024-03-07T04:21:14;32.95;;;19.85;;
52124;SDS011;38119;52.710;6.398;2024-03-07T04:23:40;34.60;;;20.27;;
52124;SDS011;38119;52.710;6.398;2024-03-07T04:26:06;34.63;;;19.55;;
52124;SDS011;38119;52.710;6.398;2024-03-07T04:28:33;34.17;;;19.48;;
52124;SDS011;38119;52.710;6.398;2024-03-07T04:30:59;33.85;;;19.90;;
52124;SDS011;38119;52.710;6.398;2024-03-07T04:33:25;32.50;;;20.42;;
52124;SDS011;38119;52.710;6.398;2024-03-07T04:35:51;33.78;;;19.52;;
52124;SDS011;38119;52.710;6.398;2024-03-07T04:38:17;35.20;;;20.10;;
52124;SDS011;38119;52.710;6.398;2024-03-07T04:40:43;33.50;;;20.45;;
52124;SDS011;38119;52.710;6.398;2024-03-07T04:43:09;36.40;;;20.38;;
52124;SDS011;38119;52.710;6.398;2024-03-07T04:45:34;33.92;;;19.88;;
52124;SDS011;38119;52.710;6.398;2024-03-07T04:48:00;34.40;;;19.50;;
52124;SDS011;38119;52.710;6.398;2024-03-07T04:50:26;36.78;;;20.48;;
52124;SDS011;38119;52.710;6.398;2024-03-07T04:52:52;36.92;;;20.80;;
52124;SDS011;38119;52.710;6.398;2024-03-07T04:55:17;35.55;;;20.95;;
52124;SDS011;38119;52.710;6.398;2024-03-07T04:57:43;33.78;;;18.60;;
52124;SDS011;38119;52.710;6.398;2024-03-07T05:00:10;34.85;;;19.75;;
52124;SDS011;38119;52.710;6.398;2024-03-07T05:02:40;37.03;;;20.10;;
52124;SDS011;38119;52.710;6.398;2024-03-07T05:05:06;35.60;;;19.38;;
52124;SDS011;38119;52.710;6.398;2024-03-07T05:07:33;34.08;;;19.48;;
52124;SDS011;38119;52.710;6.398;2024-03-07T05:10:00;33.00;;;19.27;;
52124;SDS011;38119;52.710;6.398;2024-03-07T05:12:30;34.30;;;20.20;;
52124;SDS011;38119;52.710;6.398;2024-03-07T05:14:56;33.78;;;18.52;;
52124;SDS011;38119;52.710;6.398;2024-03-07T05:17:22;34.63;;;19.88;;
52124;SDS011;38119;52.710;6.398;2024-03-07T05:19:47;32.78;;;18.63;;
52124;SDS011;38119;52.710;6.398;2024-03-07T05:22:15;33.50;;;19.58;;
52124;SDS011;38119;52.710;6.398;2024-03-07T05:24:45;34.92;;;19.70;;
52124;SDS011;38119;52.710;6.398;2024-03-07T05:27:11;33.00;;;19.52;;
52124;SDS011;38119;52.710;6.398;2024-03-07T05:29:37;33.55;;;19.92;;
52124;SDS011;38119;52.710;6.398;2024-03-07T05:34:48;34.75;;;19.85;;
52124;SDS011;38119;52.710;6.398;2024-03-07T05:37:14;38.03;;;20.13;;
52124;SDS011;38119;52.710;6.398;2024-03-07T05:39:40;30.90;;;18.58;;
52124;SDS011;38119;52.710;6.398;2024-03-07T05:42:05;33.60;;;19.58;;
52124;SDS011;38119;52.710;6.398;2024-03-07T05:44:32;32.28;;;19.02;;
52124;SDS011;38119;52.710;6.398;2024-03-07T05:46:58;32.13;;;19.30;;
52124;SDS011;38119;52.710;6.398;2024-03-07T05:49:24;35.10;;;19.35;;
52124;SDS011;38119;52.710;6.398;2024-03-07T05:51:49;35.80;;;19.58;;
52124;SDS011;38119;52.710;6.398;2024-03-07T05:54:15;30.95;;;19.00;;
52124;SDS011;38119;52.710;6.398;2024-03-07T05:56:41;33.13;;;18.63;;
52124;SDS011;38119;52.710;6.398;2024-03-07T05:59:07;35.10;;;19.45;;
52124;SDS011;38119;52.710;6.398;2024-03-07T06:01:36;32.47;;;18.75;;
52124;SDS011;38119;52.710;6.398;2024-03-07T06:04:03;32.53;;;18.73;;
52124;SDS011;38119;52.710;6.398;2024-03-07T06:06:33;32.08;;;18.00;;
52124;SDS011;38119;52.710;6.398;2024-03-07T06:09:00;33.08;;;18.48;;
52124;SDS011;38119;52.710;6.398;2024-03-07T06:11:36;35.00;;;20.10;;
52124;SDS011;38119;52.710;6.398;2024-03-07T06:14:03;35.58;;;18.50;;
52124;SDS011;38119;52.710;6.398;2024-03-07T06:16:33;30.95;;;18.02;;
52124;SDS011;38119;52.710;6.398;2024-03-07T06:19:03;34.05;;;18.00;;
52124;SDS011;38119;52.710;6.398;2024-03-07T06:21:32;31.40;;;18.85;;
52124;SDS011;38119;52.710;6.398;2024-03-07T06:24:01;32.67;;;18.85;;
52124;SDS011;38119;52.710;6.398;2024-03-07T06:26:37;35.63;;;20.02;;
52124;SDS011;38119;52.710;6.398;2024-03-07T06:29:06;33.05;;;18.27;;
52124;SDS011;38119;52.710;6.398;2024-03-07T06:31:33;32.78;;;19.00;;
52124;SDS011;38119;52.710;6.398;2024-03-07T06:33:59;31.80;;;19.30;;
52124;SDS011;38119;52.710;6.398;2024-03-07T06:36:25;31.15;;;18.33;;
52124;SDS011;38119;52.710;6.398;2024-03-07T06:38:51;33.13;;;18.27;;
52124;SDS011;38119;52.710;6.398;2024-03-07T06:41:16;34.45;;;18.27;;
52124;SDS011;38119;52.710;6.398;2024-03-07T06:43:45;32.60;;;18.33;;
52124;SDS011;38119;52.710;6.398;2024-03-07T06:46:11;30.40;;;16.67;;
52124;SDS011;38119;52.710;6.398;2024-03-07T06:48:40;34.08;;;18.48;;
52124;SDS011;38119;52.710;6.398;2024-03-07T06:51:06;30.55;;;18.45;;
52124;SDS011;38119;52.710;6.398;2024-03-07T06:53:32;33.90;;;18.90;;
52124;SDS011;38119;52.710;6.398;2024-03-07T06:55:58;31.38;;;17.90;;
52124;SDS011;38119;52.710;6.398;2024-03-07T06:58:24;33.20;;;18.35;;
52124;SDS011;38119;52.710;6.398;2024-03-07T07:00:51;31.92;;;17.52;;
52124;SDS011;38119;52.710;6.398;2024-03-07T07:03:19;30.17;;;17.60;;
52124;SDS011;38119;52.710;6.398;2024-03-07T07:05:49;28.75;;;16.88;;
52124;SDS011;38119;52.710;6.398;2024-03-07T07:08:15;28.48;;;17.83;;
52124;SDS011;38119;52.710;6.398;2024-03-07T07:10:41;33.30;;;18.10;;
52124;SDS011;38119;52.710;6.398;2024-03-07T07:13:08;32.47;;;18.58;;
52124;SDS011;38119;52.710;6.398;2024-03-07T07:15:35;30.67;;;17.35;;
52124;SDS011;38119;52.710;6.398;2024-03-07T07:18:02;27.73;;;17.23;;
52124;SDS011;38119;52.710;6.398;2024-03-07T07:20:28;32.28;;;17.98;;
52124;SDS011;38119;52.710;6.398;2024-03-07T07:22:54;30.00;;;18.52;;
52124;SDS011;38119;52.710;6.398;2024-03-07T07:25:22;30.35;;;17.63;;
52124;SDS011;38119;52.710;6.398;2024-03-07T07:27:50;31.20;;;17.98;;
52124;SDS011;38119;52.710;6.398;2024-03-07T07:30:20;29.38;;;17.00;;
52124;SDS011;38119;52.710;6.398;2024-03-07T07:32:47;30.67;;;18.38;;
52124;SDS011;38119;52.710;6.398;2024-03-07T07:35:14;28.58;;;17.85;;
52124;SDS011;38119;52.710;6.398;2024-03-07T07:37:40;27.95;;;17.80;;
52124;SDS011;38119;52.710;6.398;2024-03-07T07:40:07;29.48;;;18.05;;
52124;SDS011;38119;52.710;6.398;2024-03-07T07:42:34;29.92;;;18.15;;
52124;SDS011;38119;52.710;6.398;2024-03-07T07:45:04;30.08;;;17.75;;
52124;SDS011;38119;52.710;6.398;2024-03-07T07:47:37;33.55;;;18.13;;
52124;SDS011;38119;52.710;6.398;2024-03-07T07:50:05;28.73;;;17.88;;
52124;SDS011;38119;52.710;6.398;2024-03-07T07:52:39;28.13;;;16.95;;
52124;SDS011;38119;52.710;6.398;2024-03-07T07:55:22;30.48;;;18.52;;
52124;SDS011;38119;52.710;6.398;2024-03-07T07:57:49;31.65;;;18.05;;
52124;SDS011;38119;52.710;6.398;2024-03-07T08:00:19;32.67;;;19.15;;
52124;SDS011;38119;52.710;6.398;2024-03-07T08:03:02;28.67;;;17.40;;
52124;SDS011;38119;52.710;6.398;2024-03-07T08:05:32;32.10;;;18.38;;
52124;SDS011;38119;52.710;6.398;2024-03-07T08:08:01;31.90;;;18.97;;
52124;SDS011;38119;52.710;6.398;2024-03-07T08:10:33;33.22;;;18.60;;
52124;SDS011;38119;52.710;6.398;2024-03-07T08:13:01;31.50;;;18.85;;
52124;SDS011;38119;52.710;6.398;2024-03-07T08:15:28;31.05;;;19.05;;
52124;SDS011;38119;52.710;6.398;2024-03-07T08:17:55;31.63;;;18.63;;
52124;SDS011;38119;52.710;6.398;2024-03-07T08:20:22;33.67;;;19.08;;
52124;SDS011;38119;52.710;6.398;2024-03-07T08:22:50;33.67;;;18.90;;
52124;SDS011;38119;52.710;6.398;2024-03-07T08:25:18;32.50;;;19.58;;
52124;SDS011;38119;52.710;6.398;2024-03-07T08:27:46;31.92;;;20.13;;
52124;SDS011;38119;52.710;6.398;2024-03-07T08:30:13;34.88;;;19.50;;
52124;SDS011;38119;52.710;6.398;2024-03-07T08:32:46;33.53;;;19.63;;
52124;SDS011;38119;52.710;6.398;2024-03-07T08:35:14;29.35;;;18.90;;
52124;SDS011;38119;52.710;6.398;2024-03-07T08:37:41;31.75;;;19.17;;
52124;SDS011;38119;52.710;6.398;2024-03-07T08:40:09;33.40;;;19.58;;
52124;SDS011;38119;52.710;6.398;2024-03-07T08:42:39;32.70;;;19.98;;
52124;SDS011;38119;52.710;6.398;2024-03-07T08:45:07;34.90;;;20.95;;
52124;SDS011;38119;52.710;6.398;2024-03-07T08:47:35;35.00;;;20.50;;
52124;SDS011;38119;52.710;6.398;2024-03-07T08:50:02;36.35;;;20.70;;
52124;SDS011;38119;52.710;6.398;2024-03-07T08:52:33;34.20;;;20.15;;
52124;SDS011;38119;52.710;6.398;2024-03-07T08:55:03;32.55;;;20.75;;
52124;SDS011;38119;52.710;6.398;2024-03-07T08:57:30;35.85;;;21.50;;
52124;SDS011;38119;52.710;6.398;2024-03-07T08:59:56;36.50;;;21.63;;
52124;SDS011;38119;52.710;6.398;2024-03-07T09:02:22;33.88;;;21.63;;
52124;SDS011;38119;52.710;6.398;2024-03-07T09:04:47;39.35;;;22.20;;
52124;SDS011;38119;52.710;6.398;2024-03-07T09:07:13;37.00;;;23.08;;
52124;SDS011;38119;52.710;6.398;2024-03-07T09:09:40;36.38;;;22.50;;
52124;SDS011;38119;52.710;6.398;2024-03-07T09:12:08;37.33;;;22.95;;
52124;SDS011;38119;52.710;6.398;2024-03-07T09:14:34;39.17;;;23.50;;
52124;SDS011;38119;52.710;6.398;2024-03-07T09:17:00;41.28;;;23.42;;
52124;SDS011;38119;52.710;6.398;2024-03-07T09:19:26;38.72;;;23.92;;
52124;SDS011;38119;52.710;6.398;2024-03-07T09:21:53;40.28;;;23.88;;
52124;SDS011;38119;52.710;6.398;2024-03-07T09:24:19;42.08;;;24.98;;
52124;SDS011;38119;52.710;6.398;2024-03-07T09:26:49;44.05;;;25.63;;
52124;SDS011;38119;52.710;6.398;2024-03-07T09:29:15;41.63;;;25.02;;
52124;SDS011;38119;52.710;6.398;2024-03-07T09:31:42;37.35;;;23.92;;
52124;SDS011;38119;52.710;6.398;2024-03-07T09:34:09;40.05;;;23.65;;
52124;SDS011;38119;52.710;6.398;2024-03-07T09:36:34;38.10;;;22.75;;
52124;SDS011;38119;52.710;6.398;2024-03-07T09:39:00;39.10;;;23.45;;
52124;SDS011;38119;52.710;6.398;2024-03-07T09:41:26;41.88;;;24.45;;
52124;SDS011;38119;52.710;6.398;2024-03-07T09:43:52;37.15;;;22.55;;
52124;SDS011;38119;52.710;6.398;2024-03-07T09:46:21;38.05;;;22.20;;
52124;SDS011;38119;52.710;6.398;2024-03-07T09:48:49;37.45;;;21.77;;
52124;SDS011;38119;52.710;6.398;2024-03-07T09:51:19;43.03;;;23.83;;
52124;SDS011;38119;52.710;6.398;2024-03-07T09:53:49;40.72;;;24.85;;
52124;SDS011;38119;52.710;6.398;2024-03-07T09:56:20;41.45;;;23.85;;
52124;SDS011;38119;52.710;6.398;2024-03-07T09:58:50;44.80;;;24.23;;
52124;SDS011;38119;52.710;6.398;2024-03-07T10:01:21;38.28;;;23.08;;
52124;SDS011;38119;52.710;6.398;2024-03-07T10:03:47;41.88;;;23.90;;
52124;SDS011;38119;52.710;6.398;2024-03-07T10:06:13;41.42;;;23.85;;
52124;SDS011;38119;52.710;6.398;2024-03-07T10:08:43;39.13;;;22.60;;
52124;SDS011;38119;52.710;6.398;2024-03-07T10:11:09;40.53;;;24.00;;
52124;SDS011;38119;52.710;6.398;2024-03-07T10:13:34;40.35;;;24.40;;
52124;SDS011;38119;52.710;6.398;2024-03-07T10:16:00;40.85;;;24.42;;
52124;SDS011;38119;52.710;6.398;2024-03-07T10:18:27;44.38;;;24.77;;
52124;SDS011;38119;52.710;6.398;2024-03-07T10:20:54;43.00;;;24.42;;
52124;SDS011;38119;52.710;6.398;2024-03-07T10:23:20;37.80;;;21.15;;
52124;SDS011;38119;52.710;6.398;2024-03-07T10:25:47;40.10;;;22.08;;
52124;SDS011;38119;52.710;6.398;2024-03-07T10:28:18;37.22;;;20.35;;
52124;SDS011;38119;52.710;6.398;2024-03-07T10:30:46;35.97;;;21.15;;
52124;SDS011;38119;52.710;6.398;2024-03-07T10:33:13;37.13;;;21.13;;
52124;SDS011;38119;52.710;6.398;2024-03-07T10:35:41;40.83;;;21.75;;
52124;SDS011;38119;52.710;6.398;2024-03-07T10:38:07;35.80;;;21.10;;
52124;SDS011;38119;52.710;6.398;2024-03-07T10:40:37;36.70;;;20.70;;
52124;SDS011;38119;52.710;6.398;2024-03-07T10:43:09;37.53;;;20.55;;
52124;SDS011;38119;52.710;6.398;2024-03-07T10:45:43;34.42;;;19.85;;
52124;SDS011;38119;52.710;6.398;2024-03-07T10:48:12;35.13;;;20.63;;
52124;SDS011;38119;52.710;6.398;2024-03-07T10:50:41;35.70;;;20.67;;
52124;SDS011;38119;52.710;6.398;2024-03-07T10:58:42;34.58;;;19.70;;
52124;SDS011;38119;52.710;6.398;2024-03-07T11:01:25;31.30;;;19.05;;
52124;SDS011;38119;52.710;6.398;2024-03-07T11:03:55;36.00;;;19.98;;
52124;SDS011;38119;52.710;6.398;2024-03-07T11:06:22;35.92;;;20.48;;
52124;SDS011;38119;52.710;6.398;2024-03-07T11:08:50;33.33;;;19.80;;
52124;SDS011;38119;52.710;6.398;2024-03-07T11:11:18;36.55;;;20.08;;
52124;SDS011;38119;52.710;6.398;2024-03-07T11:13:43;35.63;;;20.10;;
52124;SDS011;38119;52.710;6.398;2024-03-07T11:16:11;35.67;;;19.80;;
52124;SDS011;38119;52.710;6.398;2024-03-07T11:18:39;35.45;;;20.85;;
52124;SDS011;38119;52.710;6.398;2024-03-07T11:21:39;35.20;;;21.15;;
52124;SDS011;38119;52.710;6.398;2024-03-07T11:24:06;32.80;;;19.77;;
52124;SDS011;38119;52.710;6.398;2024-03-07T11:26:48;34.08;;;20.75;;
52124;SDS011;38119;52.710;6.398;2024-03-07T11:32:11;35.80;;;20.27;;
52124;SDS011;38119;52.710;6.398;2024-03-07T11:34:43;34.00;;;20.58;;
52124;SDS011;38119;52.710;6.398;2024-03-07T11:37:19;34.13;;;20.30;;
52124;SDS011;38119;52.710;6.398;2024-03-07T11:40:06;35.63;;;21.25;;
52124;SDS011;38119;52.710;6.398;2024-03-07T11:42:34;36.10;;;20.23;;
52124;SDS011;38119;52.710;6.398;2024-03-07T11:45:01;32.65;;;19.88;;
52124;SDS011;38119;52.710;6.398;2024-03-07T11:47:37;35.22;;;20.42;;
52124;SDS011;38119;52.710;6.398;2024-03-07T11:50:04;33.33;;;19.67;;
52124;SDS011;38119;52.710;6.398;2024-03-07T11:52:38;31.42;;;19.33;;
52124;SDS011;38119;52.710;6.398;2024-03-07T11:55:07;31.35;;;19.40;;
52124;SDS011;38119;52.710;6.398;2024-03-07T11:57:35;34.03;;;20.23;;
52124;SDS011;38119;52.710;6.398;2024-03-07T12:00:03;29.83;;;18.50;;
52124;SDS011;38119;52.710;6.398;2024-03-07T12:02:36;33.13;;;19.38;;
52124;SDS011;38119;52.710;6.398;2024-03-07T12:05:04;31.20;;;18.17;;
52124;SDS011;38119;52.710;6.398;2024-03-07T12:07:33;31.45;;;18.77;;
52124;SDS011;38119;52.710;6.398;2024-03-07T12:09:59;30.52;;;19.27;;
52124;SDS011;38119;52.710;6.398;2024-03-07T12:12:28;33.42;;;18.58;;
52124;SDS011;38119;52.710;6.398;2024-03-07T12:14:58;29.23;;;17.85;;
52124;SDS011;38119;52.710;6.398;2024-03-07T12:17:24;31.15;;;17.90;;
52124;SDS011;38119;52.710;6.398;2024-03-07T12:19:50;32.22;;;19.02;;
52124;SDS011;38119;52.710;6.398;2024-03-07T12:22:18;32.22;;;18.80;;
52124;SDS011;38119;52.710;6.398;2024-03-07T12:24:48;30.15;;;18.38;;
52124;SDS011;38119;52.710;6.398;2024-03-07T12:27:27;31.02;;;18.10;;
52124;SDS011;38119;52.710;6.398;2024-03-07T12:29:55;32.40;;;19.08;;
52124;SDS011;38119;52.710;6.398;2024-03-07T12:32:22;29.55;;;17.88;;
52124;SDS011;38119;52.710;6.398;2024-03-07T12:34:49;32.63;;;18.55;;
52124;SDS011;38119;52.710;6.398;2024-03-07T12:37:18;33.35;;;19.92;;
52124;SDS011;38119;52.710;6.398;2024-03-07T12:39:52;31.20;;;18.17;;
52124;SDS011;38119;52.710;6.398;2024-03-07T12:42:26;32.05;;;18.88;;
52124;SDS011;38119;52.710;6.398;2024-03-07T12:44:57;36.45;;;19.77;;
52124;SDS011;38119;52.710;6.398;2024-03-07T12:47:24;31.83;;;17.75;;
52124;SDS011;38119;52.710;6.398;2024-03-07T12:49:54;33.30;;;18.23;;
52124;SDS011;38119;52.710;6.398;2024-03-07T12:52:23;30.88;;;18.02;;
52124;SDS011;38119;52.710;6.398;2024-03-07T12:54:49;32.50;;;18.13;;
52124;SDS011;38119;52.710;6.398;2024-03-07T12:57:21;28.92;;;17.10;;
52124;SDS011;38119;52.710;6.398;2024-03-07T12:59:48;26.92;;;16.38;;
52124;SDS011;38119;52.710;6.398;2024-03-07T13:02:15;25.30;;;15.75;;
52124;SDS011;38119;52.710;6.398;2024-03-07T13:04:41;24.73;;;15.25;;
52124;SDS011;38119;52.710;6.398;2024-03-07T13:07:11;24.30;;;14.73;;
52124;SDS011;38119;52.710;6.398;2024-03-07T13:09:44;24.57;;;15.10;;
52124;SDS011;38119;52.710;6.398;2024-03-07T13:12:13;24.95;;;14.93;;
52124;SDS011;38119;52.710;6.398;2024-03-07T13:14:40;24.20;;;15.25;;
52124;SDS011;38119;52.710;6.398;2024-03-07T13:17:08;25.17;;;15.57;;
52124;SDS011;38119;52.710;6.398;2024-03-07T13:19:34;25.02;;;15.23;;
52124;SDS011;38119;52.710;6.398;2024-03-07T13:22:03;25.52;;;15.30;;
52124;SDS011;38119;52.710;6.398;2024-03-07T13:24:31;26.67;;;15.98;;
52124;SDS011;38119;52.710;6.398;2024-03-07T13:26:56;25.80;;;15.65;;
52124;SDS011;38119;52.710;6.398;2024-03-07T13:29:22;29.25;;;16.75;;
52124;SDS011;38119;52.710;6.398;2024-03-07T13:31:51;29.83;;;17.58;;
52124;SDS011;38119;52.710;6.398;2024-03-07T13:34:20;30.92;;;17.55;;
52124;SDS011;38119;52.710;6.398;2024-03-07T13:36:46;28.23;;;16.20;;
52124;SDS011;38119;52.710;6.398;2024-03-07T13:39:16;33.67;;;18.08;;
52124;SDS011;38119;52.710;6.398;2024-03-07T13:41:42;32.58;;;18.17;;
52124;SDS011;38119;52.710;6.398;2024-03-07T13:44:14;33.85;;;18.95;;
52124;SDS011;38119;52.710;6.398;2024-03-07T13:46:40;31.58;;;17.50;;
52124;SDS011;38119;52.710;6.398;2024-03-07T13:49:06;32.35;;;17.67;;
52124;SDS011;38119;52.710;6.398;2024-03-07T13:51:33;34.13;;;18.27;;
52124;SDS011;38119;52.710;6.398;2024-03-07T13:54:01;31.48;;;17.88;;
52124;SDS011;38119;52.710;6.398;2024-03-07T13:57:28;30.48;;;17.00;;
52124;SDS011;38119;52.710;6.398;2024-03-07T14:02:33;33.08;;;17.40;;
52124;SDS011;38119;52.710;6.398;2024-03-07T14:05:34;31.48;;;17.77;;
52124;SDS011;38119;52.710;6.398;2024-03-07T14:16:57;33.20;;;18.35;;
52124;SDS011;38119;52.710;6.398;2024-03-07T14:29:03;39.05;;;18.98;;
52124;SDS011;38119;52.710;6.398;2024-03-07T14:31:45;40.20;;;18.83;;
52124;SDS011;38119;52.710;6.398;2024-03-07T14:37:11;40.25;;;20.02;;
52124;SDS011;38119;52.710;6.398;2024-03-07T14:39:50;49.42;;;30.33;;
52124;SDS011;38119;52.710;6.398;2024-03-07T14:42:19;37.13;;;20.95;;
52124;SDS011;38119;52.710;6.398;2024-03-07T14:44:45;36.15;;;19.25;;
52124;SDS011;38119;52.710;6.398;2024-03-07T14:47:13;34.80;;;20.25;;
52124;SDS011;38119;52.710;6.398;2024-03-07T14:49:43;36.42;;;18.40;;
52124;SDS011;38119;52.710;6.398;2024-03-07T14:52:09;39.85;;;19.55;;
52124;SDS011;38119;52.710;6.398;2024-03-07T14:54:38;34.10;;;18.20;;
52124;SDS011;38119;52.710;6.398;2024-03-07T14:57:05;34.58;;;18.77;;
52124;SDS011;38119;52.710;6.398;2024-03-07T14:59:36;37.60;;;20.30;;
52124;SDS011;38119;52.710;6.398;2024-03-07T15:02:02;37.35;;;18.02;;